createdAt,value
2022-12-23T00:02:01.925Z,88.30
2022-12-23T00:04:51.312Z,87.75
2022-12-23T00:07:41.094Z,87.33
2022-12-23T00:10:32.078Z,87.43
2022-12-23T00:13:38.893Z,88.34
2022-12-23T00:16:28.529Z,88.82
2022-12-23T00:19:17.882Z,88.98
2022-12-23T00:22:07.520Z,88.60
2022-12-23T00:24:56.851Z,88.24
2022-12-23T00:28:01.561Z,88.26
2022-12-23T00:30:53.541Z,87.75
2022-12-23T00:33:49.730Z,88.40
2022-12-23T00:36:40.968Z,87.85
2022-12-23T00:39:52.093Z,87.54
2022-12-23T00:42:55.871Z,87.56
2022-12-23T00:45:46.640Z,88.19
2022-12-23T00:48:58.862Z,87.52
2022-12-23T00:51:48.295Z,87.86
2022-12-23T00:54:38.319Z,88.19
2022-12-23T00:57:28.092Z,88.39
2022-12-23T01:00:18.772Z,88.69
2022-12-23T01:03:32.150Z,88.22
2022-12-23T01:06:21.294Z,87.19
2022-12-23T01:09:10.650Z,87.61
2022-12-23T01:12:00.327Z,87.55
2022-12-23T01:14:50.156Z,87.71
2022-12-23T01:17:39.411Z,87.18
2022-12-23T01:20:30.126Z,88.08
2022-12-23T01:23:19.407Z,87.68
2022-12-23T01:26:10.221Z,87.81
2022-12-23T01:29:00.333Z,87.98
2022-12-23T01:31:50.049Z,87.84
2022-12-23T01:34:39.363Z,87.76
2022-12-23T01:37:29.967Z,88.23
2022-12-23T01:40:19.444Z,88.16
2022-12-23T01:43:11.725Z,88.44
2022-12-23T01:46:01.032Z,88.24
2022-12-23T01:48:54.159Z,88.84
2022-12-23T01:51:44.083Z,88.72
2022-12-23T01:54:35.632Z,88.70
2022-12-23T01:57:25.963Z,88.92
2022-12-23T02:00:34.055Z,89.07
2022-12-23T02:03:40.581Z,89.38
2022-12-23T02:06:52.551Z,89.46
2022-12-23T02:09:43.213Z,90.19
2022-12-23T02:12:45.639Z,89.74
2022-12-23T02:16:03.761Z,89.83
2022-12-23T02:19:11.697Z,90.25
2022-12-23T02:22:24.735Z,89.82
2022-12-23T02:26:08.046Z,89.88
2022-12-23T02:29:27.724Z,89.96
2022-12-23T02:32:26.258Z,89.98
2022-12-23T02:35:26.262Z,90.29
2022-12-23T02:38:23.758Z,90.56
2022-12-23T02:41:22.009Z,90.01
2022-12-23T02:44:24.387Z,89.95
2022-12-23T02:47:21.116Z,90.40
2022-12-23T02:50:16.567Z,89.94
2022-12-23T02:53:15.339Z,90.48
2022-12-23T02:56:07.458Z,90.07
2022-12-23T02:59:06.681Z,90.56
2022-12-23T03:01:57.609Z,90.56
2022-12-23T03:04:48.509Z,90.65
2022-12-23T03:07:43.970Z,90.21
2022-12-23T03:10:46.133Z,90.82
2022-12-23T03:14:11.189Z,90.42
2022-12-23T03:17:15.056Z,91.03
2022-12-23T03:20:16.337Z,90.88
2022-12-23T03:23:18.929Z,90.35
2022-12-23T03:26:17.679Z,90.44
2022-12-23T03:29:14.805Z,90.81
2022-12-23T03:32:06.509Z,90.95
2022-12-23T03:34:58.280Z,90.88
2022-12-23T03:37:53.403Z,91.00
2022-12-23T03:40:46.990Z,91.24
2022-12-23T03:43:46.732Z,90.77
2022-12-23T03:46:46.175Z,91.23
2022-12-23T03:49:41.283Z,91.08
2022-12-23T03:52:37.931Z,91.19
2022-12-23T03:55:34.660Z,91.25
2022-12-23T03:58:35.195Z,91.28
2022-12-23T04:01:37.942Z,91.37
2022-12-23T04:04:31.839Z,92.37
2022-12-23T04:07:30.379Z,93.02
2022-12-23T04:10:21.304Z,92.36
2022-12-23T04:13:12.024Z,92.15
2022-12-23T04:16:02.468Z,92.72
2022-12-23T04:18:51.829Z,92.50
2022-12-23T04:21:41.173Z,92.17
2022-12-23T04:24:30.752Z,92.17
2022-12-23T04:27:20.047Z,92.15
2022-12-23T04:30:14.927Z,92.25
2022-12-23T04:33:04.351Z,92.16
2022-12-23T04:35:53.718Z,92.22
2022-12-23T04:38:43.083Z,92.42
2022-12-23T04:41:32.413Z,92.38
2022-12-23T04:44:21.703Z,92.12
2022-12-23T04:47:12.339Z,91.84
2022-12-23T04:50:01.593Z,92.31
2022-12-23T04:52:50.986Z,92.24
2022-12-23T04:55:40.381Z,92.05
2022-12-23T04:58:29.658Z,92.25
2022-12-23T05:01:19.005Z,93.28
2022-12-23T05:04:10.112Z,93.40
2022-12-23T05:06:59.575Z,93.60
2022-12-23T05:09:48.836Z,93.95
2022-12-23T05:12:38.103Z,94.15
2022-12-23T05:15:27.480Z,94.11
2022-12-23T05:18:17.143Z,94.44
2022-12-23T05:21:08.025Z,95.30
2022-12-23T05:23:57.759Z,94.86
2022-12-23T05:26:52.915Z,95.98
2022-12-23T05:29:47.056Z,95.24
2022-12-23T05:32:36.314Z,95.50
2022-12-23T05:35:27.737Z,95.76
2022-12-23T05:38:18.513Z,96.62
2022-12-23T05:41:08.417Z,96.84
2022-12-23T05:43:57.755Z,96.66
2022-12-23T05:46:47.081Z,96.68
2022-12-23T05:49:36.354Z,96.80
2022-12-23T05:52:25.746Z,97.12
2022-12-23T05:55:16.594Z,97.01
2022-12-23T05:58:06.009Z,96.67
2022-12-23T06:00:55.374Z,96.53
2022-12-23T06:03:44.814Z,96.84
2022-12-23T06:06:34.154Z,96.55
2022-12-23T06:09:23.449Z,95.75
2022-12-23T06:12:14.189Z,96.30
2022-12-23T06:15:03.710Z,96.41
2022-12-23T06:17:53.431Z,96.32
2022-12-23T06:20:42.773Z,95.93
2022-12-23T06:23:32.030Z,96.02
2022-12-23T06:26:21.423Z,95.96
2022-12-23T06:29:12.686Z,96.53
2022-12-23T06:32:02.118Z,95.78
2022-12-23T06:34:53.414Z,95.87
2022-12-23T06:37:42.741Z,95.60
2022-12-23T06:40:32.027Z,95.38
2022-12-23T06:43:21.431Z,95.91
2022-12-23T06:46:12.523Z,95.51
2022-12-23T06:49:04.919Z,95.45
2022-12-23T06:51:57.089Z,95.51
2022-12-23T06:54:46.430Z,95.45
2022-12-23T06:57:35.875Z,95.98
2022-12-23T07:00:25.442Z,95.78
2022-12-23T07:03:16.211Z,96.23
2022-12-23T07:06:06.103Z,96.05
2022-12-23T07:08:55.411Z,96.25
2022-12-23T07:11:44.687Z,96.02
2022-12-23T07:14:34.050Z,95.87
2022-12-23T07:17:23.480Z,96.29
2022-12-23T07:20:15.246Z,96.31
2022-12-23T07:23:04.593Z,96.32
2022-12-23T07:25:53.988Z,96.32
2022-12-23T07:28:46.855Z,95.85
2022-12-23T07:31:40.774Z,96.05
2022-12-23T07:34:30.671Z,95.87
2022-12-23T07:37:21.957Z,96.15
2022-12-23T07:40:13.339Z,95.83
2022-12-23T07:43:02.948Z,96.12
2022-12-23T07:45:59.241Z,95.58
2022-12-23T07:48:49.519Z,95.50
2022-12-23T07:51:38.848Z,95.16
2022-12-23T07:54:29.513Z,95.39
2022-12-23T07:57:18.814Z,95.66
2022-12-23T08:00:11.390Z,95.65
2022-12-23T08:03:03.481Z,95.76
2022-12-23T08:06:02.113Z,95.36
2022-12-23T08:08:51.476Z,95.57
2022-12-23T08:11:42.250Z,95.43
2022-12-23T08:14:31.538Z,95.08
2022-12-23T08:17:21.307Z,95.26
2022-12-23T08:20:11.862Z,95.39
2022-12-23T08:23:01.143Z,95.34
2022-12-23T08:25:50.422Z,95.32
2022-12-23T08:28:42.800Z,95.03
2022-12-23T08:31:32.935Z,94.78
2022-12-23T08:34:22.269Z,95.19
2022-12-23T08:37:11.596Z,95.48
2022-12-23T08:40:00.932Z,95.36
2022-12-23T08:42:50.187Z,95.41
2022-12-23T08:45:41.190Z,95.50
2022-12-23T08:48:30.656Z,95.56
2022-12-23T08:51:25.272Z,95.59
2022-12-23T08:54:14.601Z,95.99
2022-12-23T08:57:03.907Z,95.96
2022-12-23T08:59:53.103Z,96.21
2022-12-23T09:02:44.132Z,96.07
2022-12-23T09:05:34.740Z,96.64
2022-12-23T09:08:24.051Z,96.54
2022-12-23T09:11:16.593Z,96.17
2022-12-23T09:14:07.404Z,96.32
2022-12-23T09:16:56.743Z,96.12
2022-12-23T09:19:52.657Z,96.35
2022-12-23T09:22:42.564Z,96.76
2022-12-23T09:25:31.955Z,96.64
2022-12-23T09:28:21.578Z,96.99
2022-12-23T09:31:13.511Z,97.94
2022-12-23T09:34:02.981Z,97.13
2022-12-23T09:36:55.606Z,97.33
2022-12-23T09:39:45.223Z,97.02
2022-12-23T09:42:54.377Z,97.40
2022-12-23T09:46:00.298Z,98.24
2022-12-23T09:49:04.996Z,98.53
2022-12-23T09:52:01.646Z,98.77
2022-12-23T09:54:55.312Z,99.05
2022-12-23T09:57:54.635Z,98.99
2022-12-23T10:00:55.471Z,98.55
2022-12-23T10:04:36.644Z,97.75
2022-12-23T10:07:38.373Z,97.60
2022-12-23T10:10:36.396Z,97.94
2022-12-23T10:13:29.858Z,98.36
2022-12-23T10:16:21.690Z,98.35
2022-12-23T10:19:19.874Z,98.09
2022-12-23T10:22:17.284Z,98.17
2022-12-23T10:25:16.390Z,97.76
2022-12-23T10:28:06.333Z,98.25
2022-12-23T10:34:23.099Z,98.38
2022-12-23T10:37:21.574Z,98.14
2022-12-23T10:40:22.013Z,98.39
2022-12-23T10:43:24.316Z,98.42
2022-12-23T10:46:23.593Z,98.31
2022-12-23T10:49:24.446Z,98.43
2022-12-23T10:52:18.880Z,98.23
2022-12-23T10:55:20.025Z,98.07
2022-12-23T10:58:15.814Z,97.83
2022-12-23T11:01:15.223Z,97.76
2022-12-23T11:04:17.618Z,97.81
2022-12-23T11:07:42.952Z,97.70
2022-12-23T11:10:28.765Z,97.89
2022-12-23T11:13:40.032Z,98.19
2022-12-23T11:16:30.304Z,98.28
2022-12-23T11:19:19.647Z,98.45
2022-12-23T11:22:24.878Z,98.50
2022-12-23T11:25:36.735Z,98.38
2022-12-23T11:28:26.666Z,98.89
2022-12-23T11:31:17.417Z,98.47
2022-12-23T11:34:15.986Z,98.54
2022-12-23T11:37:07.691Z,98.26
2022-12-23T11:39:57.342Z,98.44
2022-12-23T11:42:55.047Z,98.55
2022-12-23T11:45:44.800Z,99.03
2022-12-23T11:48:34.965Z,98.40
2022-12-23T11:51:28.029Z,98.74
2022-12-23T11:54:20.306Z,98.34
2022-12-23T11:57:18.367Z,99.08
2022-12-23T12:00:21.793Z,98.28
2022-12-23T12:03:18.132Z,98.32
2022-12-23T12:06:09.583Z,98.29
2022-12-23T12:09:03.152Z,98.34
2022-12-23T12:11:55.907Z,98.35
2022-12-23T12:14:48.188Z,98.39
2022-12-23T12:17:45.903Z,98.56
2022-12-23T12:20:40.544Z,98.28
2022-12-23T12:23:41.608Z,98.23
2022-12-23T12:26:34.816Z,98.28
2022-12-23T12:29:31.534Z,98.27
2022-12-23T12:32:29.172Z,98.25
2022-12-23T12:35:30.470Z,98.16
2022-12-23T12:38:27.708Z,98.36
2022-12-23T12:41:22.516Z,98.54
2022-12-23T12:44:31.660Z,98.93
2022-12-23T12:47:52.751Z,99.66
2022-12-23T12:50:45.745Z,99.28
2022-12-23T12:53:38.304Z,99.82
2022-12-23T12:56:34.940Z,99.81
2022-12-23T12:59:28.565Z,99.36
2022-12-23T13:02:53.822Z,99.14
2022-12-23T13:06:20.421Z,98.58
2022-12-23T13:09:16.758Z,98.59
2022-12-23T13:12:19.150Z,97.61
2022-12-23T13:15:21.673Z,96.92
2022-12-23T13:18:29.320Z,97.13
2022-12-23T13:21:25.494Z,97.13
2022-12-23T13:24:25.720Z,97.48
2022-12-23T13:27:21.267Z,96.87
2022-12-23T13:30:14.347Z,97.39
2022-12-23T13:33:24.630Z,96.78
2022-12-23T13:36:37.974Z,97.16
2022-12-23T13:39:44.949Z,97.23
2022-12-23T13:42:43.652Z,97.27
2022-12-23T13:45:37.682Z,97.08
2022-12-23T13:48:40.560Z,97.05
2022-12-23T13:51:40.615Z,97.53
2022-12-23T13:54:47.905Z,97.45
2022-12-23T13:57:53.650Z,96.89
2022-12-23T14:00:43.758Z,96.40
2022-12-23T14:03:36.681Z,96.30
2022-12-23T14:06:46.063Z,95.77
2022-12-23T14:09:39.304Z,96.52
2022-12-23T14:12:31.017Z,96.08
2022-12-23T14:15:45.660Z,95.98
2022-12-23T14:19:07.539Z,96.05
2022-12-23T14:22:14.969Z,96.36
2022-12-23T14:25:33.071Z,95.70
2022-12-23T14:28:40.982Z,95.45
2022-12-23T14:31:36.741Z,95.90
2022-12-23T14:34:32.848Z,94.68
2022-12-23T14:37:39.074Z,93.03
2022-12-23T14:41:19.177Z,92.68
2022-12-23T14:44:22.209Z,92.72
2022-12-23T14:47:36.069Z,91.67
2022-12-23T14:50:42.648Z,91.01
2022-12-23T14:53:34.336Z,90.70
2022-12-23T14:56:29.947Z,89.82
2022-12-23T14:59:28.585Z,89.78
2022-12-23T15:02:24.347Z,89.89
2022-12-23T15:05:14.757Z,90.06
2022-12-23T15:08:05.207Z,89.48
2022-12-23T15:10:57.071Z,88.57
2022-12-23T15:13:46.898Z,89.30
2022-12-23T15:16:40.378Z,88.15
2022-12-23T15:19:30.384Z,88.02
2022-12-23T15:22:25.317Z,88.33
2022-12-23T15:25:23.770Z,88.08
2022-12-23T15:28:21.820Z,88.35
2022-12-23T15:31:26.356Z,88.05
2022-12-23T15:34:24.460Z,87.94
2022-12-23T15:37:14.525Z,88.09
2022-12-23T15:40:11.872Z,87.59
2022-12-23T15:43:04.046Z,87.63
2022-12-23T15:45:55.049Z,87.66
2022-12-23T15:48:45.002Z,87.70
2022-12-23T15:54:55.764Z,88.07
2022-12-23T15:57:50.634Z,87.96
2022-12-23T16:00:43.166Z,88.30
2022-12-23T16:03:38.526Z,88.30
2022-12-23T16:06:32.124Z,88.03
2022-12-23T16:09:34.537Z,87.61
2022-12-23T16:12:26.524Z,87.60
2022-12-23T16:15:27.078Z,87.76
2022-12-23T16:18:28.661Z,87.59
2022-12-23T16:21:19.443Z,87.34
2022-12-23T16:24:10.790Z,87.50
2022-12-23T16:27:00.202Z,86.91
2022-12-23T16:29:50.433Z,87.41
2022-12-23T16:32:54.656Z,87.56
2022-12-23T16:35:45.302Z,87.74
2022-12-23T16:38:36.053Z,87.81
2022-12-23T16:41:25.516Z,87.43
2022-12-23T16:44:14.918Z,87.19
2022-12-23T16:47:09.786Z,86.93
2022-12-23T16:49:59.178Z,86.89
2022-12-23T16:52:48.594Z,87.15
2022-12-23T16:55:41.720Z,87.20
2022-12-23T16:58:35.619Z,86.92
2022-12-23T17:01:29.010Z,86.92
2022-12-23T17:04:18.780Z,86.71
2022-12-23T17:07:12.895Z,86.97
2022-12-23T17:10:02.224Z,87.07
2022-12-23T17:12:53.160Z,87.16
2022-12-23T17:15:42.583Z,87.37
2022-12-23T17:18:31.964Z,87.42
2022-12-23T17:21:24.682Z,87.54
2022-12-23T17:24:22.121Z,87.49
2022-12-23T17:27:17.084Z,88.06
2022-12-23T17:30:14.756Z,87.88
2022-12-23T17:33:04.083Z,88.49
2022-12-23T17:35:53.879Z,87.99
2022-12-23T17:38:43.447Z,88.34
2022-12-23T17:41:34.874Z,88.21
2022-12-23T17:44:24.228Z,88.04
2022-12-23T17:47:18.456Z,88.07
2022-12-23T17:50:10.183Z,87.83
2022-12-23T17:52:59.771Z,87.65
2022-12-23T17:55:49.085Z,88.12
2022-12-23T17:58:38.631Z,87.45
2022-12-23T18:01:31.080Z,87.77
2022-12-23T18:04:21.930Z,87.01
2022-12-23T18:07:13.557Z,86.89
2022-12-23T18:10:02.930Z,86.89
2022-12-23T18:12:56.741Z,87.08
2022-12-23T18:15:46.986Z,86.80
2022-12-23T18:18:45.822Z,86.59
2022-12-23T18:21:37.671Z,87.05
2022-12-23T18:24:27.349Z,87.03
2022-12-23T18:27:18.167Z,86.78
2022-12-23T18:30:09.597Z,87.10
2022-12-23T18:32:58.955Z,87.31
2022-12-23T18:35:50.185Z,87.21
2022-12-23T18:38:40.957Z,87.06
2022-12-23T18:41:30.544Z,87.53
2022-12-23T18:44:21.480Z,87.27
2022-12-23T18:47:11.655Z,87.10
2022-12-23T18:50:00.961Z,87.48
2022-12-23T18:52:50.548Z,87.18
2022-12-23T18:55:41.307Z,87.20
2022-12-23T18:58:30.723Z,87.45
2022-12-23T19:01:20.449Z,87.80
2022-12-23T19:04:09.929Z,87.76
2022-12-23T19:06:59.502Z,87.88
2022-12-23T19:09:48.884Z,87.99
2022-12-23T19:12:39.726Z,87.98
2022-12-23T19:15:29.440Z,87.57
2022-12-23T19:18:21.829Z,87.74
2022-12-23T19:21:11.204Z,87.34
2022-12-23T19:24:00.706Z,87.65
2022-12-23T19:26:50.039Z,87.76
2022-12-23T19:29:40.886Z,87.60
2022-12-23T19:32:30.228Z,87.57
2022-12-23T19:35:19.655Z,86.95
2022-12-23T19:38:09.211Z,87.01
2022-12-23T19:40:59.288Z,86.83
2022-12-23T19:43:48.987Z,86.73
2022-12-23T19:46:39.857Z,86.88
2022-12-23T19:49:29.313Z,86.53
2022-12-23T19:52:18.713Z,86.60
2022-12-23T19:55:10.286Z,86.72
2022-12-23T19:57:59.576Z,87.26
2022-12-23T20:00:49.003Z,87.23
2022-12-23T20:03:40.325Z,87.31
2022-12-23T20:06:33.784Z,87.69
2022-12-23T20:09:23.210Z,87.54
2022-12-23T20:12:12.742Z,88.13
2022-12-23T20:15:02.448Z,87.31
2022-12-23T20:17:51.962Z,87.81
2022-12-23T20:20:45.598Z,87.72
2022-12-23T20:23:35.482Z,88.02
2022-12-23T20:26:24.870Z,87.58
2022-12-23T20:29:14.391Z,87.46
2022-12-23T20:32:03.730Z,87.08
2022-12-23T20:34:53.044Z,87.01
2022-12-23T20:37:43.798Z,87.07
2022-12-23T20:40:33.273Z,87.10
2022-12-23T20:43:22.568Z,87.06
2022-12-23T20:46:15.552Z,87.03
2022-12-23T20:49:05.160Z,86.82
2022-12-23T20:51:54.499Z,87.04
2022-12-23T20:54:45.317Z,87.07
2022-12-23T20:57:35.953Z,87.41
2022-12-23T21:00:25.595Z,87.05
2022-12-23T21:03:15.277Z,87.21
2022-12-23T21:06:04.734Z,86.75
2022-12-23T21:08:55.871Z,87.29
2022-12-23T21:11:48.594Z,87.10
2022-12-23T21:14:37.957Z,86.75
2022-12-23T21:17:27.309Z,86.87
2022-12-23T21:20:17.287Z,86.51
2022-12-23T21:23:06.570Z,86.72
2022-12-23T21:26:14.947Z,86.93
2022-12-23T21:29:08.314Z,86.50
2022-12-23T21:31:58.273Z,86.43
2022-12-23T21:34:47.954Z,85.90
2022-12-23T21:37:37.361Z,85.83
2022-12-23T21:40:26.673Z,85.86
2022-12-23T21:43:16.011Z,85.79
2022-12-23T21:46:09.673Z,85.18
2022-12-23T21:49:00.244Z,85.32
2022-12-23T21:51:49.695Z,85.51
2022-12-23T21:54:39.126Z,85.25
2022-12-23T21:57:28.469Z,85.42
2022-12-23T22:00:18.384Z,85.57
2022-12-23T22:03:09.093Z,85.41
2022-12-23T22:06:10.230Z,85.11
2022-12-23T22:09:00.894Z,85.38
2022-12-23T22:11:50.443Z,85.49
2022-12-23T22:14:39.884Z,85.21
2022-12-23T22:17:29.372Z,85.17
2022-12-23T22:20:20.203Z,85.39
2022-12-23T22:23:09.533Z,85.37
2022-12-23T22:25:58.838Z,85.57
2022-12-23T22:28:48.430Z,85.73
2022-12-23T22:31:41.426Z,85.52
2022-12-23T22:34:30.745Z,85.34
2022-12-23T22:37:21.389Z,85.42
2022-12-23T22:40:12.309Z,85.41
2022-12-23T22:43:01.688Z,85.47
2022-12-23T22:45:58.174Z,85.25
2022-12-23T22:48:47.766Z,85.31
2022-12-23T22:51:38.052Z,84.85
2022-12-23T22:54:28.695Z,84.95
2022-12-23T22:57:18.049Z,84.77
2022-12-23T23:00:12.644Z,84.56
2022-12-23T23:03:02.159Z,84.79
2022-12-23T23:06:00.024Z,84.78
2022-12-23T23:08:49.539Z,84.40
2022-12-23T23:11:41.343Z,84.34
2022-12-23T23:14:50.982Z,84.48
2022-12-23T23:17:40.446Z,84.38
2022-12-23T23:20:29.867Z,84.34
2022-12-23T23:23:19.349Z,84.34
2022-12-23T23:26:10.406Z,84.44
2022-12-23T23:29:01.035Z,84.08
2022-12-23T23:31:50.432Z,83.97
2022-12-23T23:34:40.713Z,84.07
2022-12-23T23:37:30.038Z,84.11
2022-12-23T23:40:19.791Z,84.48
2022-12-23T23:43:09.426Z,84.76
2022-12-23T23:46:00.258Z,85.04
2022-12-23T23:48:49.663Z,85.21
2022-12-23T23:51:39.839Z,85.16
2022-12-23T23:54:29.222Z,85.32
2022-12-23T23:57:18.509Z,85.25
